Time;durP1;ratioP1;P1;durP2;ratioP2;P2;SDS_P1;SDS_P2;PMS_P1;PMS_P2;Temp;Humidity;BMP_temperature;BMP_pressure;BME280_temperature;BME280_humidity;BME280_pressure;Samples;Min_cycle;Max_cycle;Signal;HPM_P1;HPM_P2
2023/01/17 00:01:15;;;;;;;7.55;3.80;;;;;;;5.18;100.00;97792.94;5031678;28;20049;-75
2023/01/17 00:12:01;;;;;;;10.77;5.00;;;;;;;5.20;100.00;97806.22;5032327;28;20506;-76
2023/01/17 00:14:27;;;;;;;14.38;6.55;;;;;;;5.22;100.00;97796.34;5027950;28;20056;-75
2023/01/17 00:16:54;;;;;;;17.95;6.53;;;;;;;5.18;100.00;97795.69;5007169;28;20063;-75
2023/01/17 01:34:39;;;;;;;4.15;2.10;;;;;;;4.65;100.00;97921.41;5026024;28;20045;-78
2023/01/17 01:37:05;;;;;;;7.05;2.30;;;;;;;4.65;100.00;97933.16;5026638;28;20127;-75
2023/01/17 01:39:32;;;;;;;4.38;2.30;;;;;;;4.77;100.00;97934.47;5029018;28;20056;-75
2023/01/17 01:41:58;;;;;;;10.85;3.45;;;;;;;4.79;100.00;97938.31;5023543;28;20056;-76
2023/01/17 01:44:52;;;;;;;6.30;2.90;;;;;;;4.65;100.00;97944.09;5024794;28;20060;-77
2023/01/17 01:47:28;;;;;;;4.82;2.08;;;;;;;4.63;100.00;97954.69;5028921;28;20582;-74
2023/01/17 01:49:54;;;;;;;2.70;1.73;;;;;;;4.71;100.00;97955.34;5013160;28;20395;-77
2023/01/17 01:52:24;;;;;;;2.20;1.45;;;;;;;4.67;100.00;97963.63;5027874;28;20839;-76
2023/01/17 01:54:57;;;;;;;2.20;1.13;;;;;;;4.71;100.00;97974.50;5028617;28;20586;-77
2023/01/17 01:57:28;;;;;;;3.25;1.70;;;;;;;4.64;100.00;97986.38;5023452;28;20085;-75
2023/01/17 02:00:00;;;;;;;3.40;1.70;;;;;;;4.71;100.00;97983.50;5026482;28;20044;-75
2023/01/17 02:02:29;;;;;;;7.63;2.42;;;;;;;4.54;100.00;97984.63;5022590;28;20053;-75
2023/01/17 02:04:58;;;;;;;10.25;3.25;;;;;;;4.61;100.00;97987.22;5027294;28;20056;-75
2023/01/17 02:07:31;;;;;;;7.57;3.25;;;;;;;4.40;100.00;97987.66;5024516;28;20057;-74
2023/01/17 02:09:58;;;;;;;6.60;1.90;;;;;;;4.31;100.00;97990.19;5024334;28;20061;-75
2023/01/17 02:12:24;;;;;;;2.58;1.33;;;;;;;4.18;100.00;98019.38;5028123;28;20057;-75
2023/01/17 02:14:51;;;;;;;4.03;1.52;;;;;;;4.00;100.00;98007.19;5024177;28;20064;-75
2023/01/17 02:17:43;;;;;;;2.65;1.50;;;;;;;3.81;100.00;98025.09;5031535;28;20052;-74
2023/01/17 02:20:12;;;;;;;2.90;1.60;;;;;;;3.60;100.00;98028.19;5031022;28;20044;-74
2023/01/17 02:23:05;;;;;;;1.45;1.10;;;;;;;3.20;100.00;98040.13;5029521;28;20083;-76
2023/01/17 02:26:16;;;;;;;2.22;1.30;;;;;;;3.03;100.00;98035.69;5019027;28;20056;-78
2023/01/17 02:29:04;;;;;;;4.45;1.77;;;;;;;3.13;100.00;98032.03;5028867;28;20503;-76
2023/01/17 02:31:52;;;;;;;2.17;1.35;;;;;;;3.07;100.00;98030.19;5023736;28;20045;-75
2023/01/17 02:34:21;;;;;;;1.42;1.05;;;;;;;3.11;100.00;98045.38;5028453;28;20078;-78
2023/01/17 02:36:55;;;;;;;1.38;0.88;;;;;;;3.10;100.00;98045.78;5028960;28;20045;-76
2023/01/17 02:39:27;;;;;;;4.82;1.85;;;;;;;3.05;100.00;98059.88;5028207;28;20045;-78
2023/01/17 02:42:01;;;;;;;5.65;2.63;;;;;;;3.17;100.00;98062.81;5031364;28;20506;-79
2023/01/17 02:44:27;;;;;;;2.63;1.83;;;;;;;3.13;100.00;98072.28;5029519;28;20045;-76
2023/01/17 02:46:56;;;;;;;2.92;1.38;;;;;;;3.03;100.00;98075.91;5029546;28;20045;-75
2023/01/17 02:49:29;;;;;;;4.72;1.88;;;;;;;2.96;100.00;98087.69;5014755;28;20049;-75
2023/01/17 02:52:04;;;;;;;4.03;1.60;;;;;;;2.94;100.00;98076.41;5023693;28;20601;-76
2023/01/17 02:55:03;;;;;;;2.78;1.55;;;;;;;2.80;100.00;98073.84;5027236;28;20057;-76
2023/01/17 02:57:52;;;;;;;5.75;2.35;;;;;;;2.80;100.00;98090.22;5025188;28;20053;-74
2023/01/17 03:00:43;;;;;;;6.72;2.33;;;;;;;2.57;100.00;98103.78;5049241;28;20048;-74
2023/01/17 03:03:12;;;;;;;2.67;1.75;;;;;;;2.57;100.00;98103.78;5047835;28;20045;-75
2023/01/17 03:05:45;;;;;;;6.75;2.65;;;;;;;2.57;100.00;98114.69;5049655;28;20051;-75
2023/01/17 03:08:12;;;;;;;1.40;1.10;;;;;;;2.49;100.00;98115.94;5048016;28;20427;-76
2023/01/17 03:10:41;;;;;;;2.97;1.45;;;;;;;2.21;100.00;98118.94;5049099;28;20107;-75
2023/01/17 03:13:07;;;;;;;1.23;1.13;;;;;;;2.32;100.00;98130.53;5048824;28;20085;-75
2023/01/17 03:15:34;;;;;;;2.88;1.52;;;;;;;2.35;100.00;98130.50;5049521;28;20052;-75
2023/01/17 03:18:08;;;;;;;4.88;1.63;;;;;;;2.23;100.00;98138.41;5031024;28;20137;-74
2023/01/17 03:20:35;;;;;;;2.53;1.40;;;;;;;2.25;100.00;98146.97;5041696;28;20472;-75
2023/01/17 03:23:01;;;;;;;3.60;1.40;;;;;;;2.18;100.00;98150.53;5047243;28;20049;-73
2023/01/17 03:25:27;;;;;;;5.82;2.35;;;;;;;2.14;100.00;98159.91;5049487;28;20059;-73
2023/01/17 03:27:54;;;;;;;2.05;1.27;;;;;;;2.17;100.00;98159.88;5048705;28;20045;-74
2023/01/17 03:30:21;;;;;;;5.05;2.30;;;;;;;2.17;100.00;98167.31;5048442;28;20045;-75
2023/01/17 03:32:49;;;;;;;4.05;1.55;;;;;;;2.11;100.00;98166.19;5048439;28;20041;-75
2023/01/17 03:35:15;;;;;;;0.90;0.90;;;;;;;2.06;100.00;98159.19;5048596;28;20052;-75
2023/01/17 03:37:42;;;;;;;2.85;1.25;;;;;;;2.10;100.00;98164.63;5048831;28;20072;-76
2023/01/17 03:40:09;;;;;;;5.43;2.50;;;;;;;1.96;100.00;98162.03;5048145;28;20119;-74
2023/01/17 03:42:35;;;;;;;2.92;1.63;;;;;;;2.09;100.00;98169.31;5047933;28;20052;-74
2023/01/17 03:45:02;;;;;;;1.90;1.17;;;;;;;2.07;100.00;98165.44;5048989;28;20049;-75
2023/01/17 03:47:29;;;;;;;6.43;2.88;;;;;;;2.13;100.00;98172.03;5048779;28;20045;-75
2023/01/17 03:49:55;;;;;;;11.45;4.00;;;;;;;2.15;100.00;98170.44;5046984;28;20083;-75
2023/01/17 03:52:22;;;;;;;10.75;3.67;;;;;;;2.23;100.00;98173.88;5030280;28;20080;-74
2023/01/17 03:54:48;;;;;;;5.05;2.33;;;;;;;2.13;100.00;98180.97;5046082;28;20049;-77
2023/01/17 03:57:15;;;;;;;9.57;3.55;;;;;;;2.24;100.00;98180.88;5048655;28;20049;-75
2023/01/17 03:59:41;;;;;;;4.10;1.75;;;;;;;2.22;100.00;98183.22;5049013;28;20045;-75
2023/01/17 04:02:08;;;;;;;6.15;2.45;;;;;;;2.13;100.00;98196.56;5045751;28;20045;-73
2023/01/17 04:04:35;;;;;;;9.80;3.75;;;;;;;2.31;100.00;98200.69;5047753;28;20661;-76
2023/01/17 04:07:01;;;;;;;6.85;2.60;;;;;;;2.28;100.00;98206.97;5039108;28;20053;-75
2023/01/17 04:09:32;;;;;;;7.57;2.55;;;;;;;2.36;100.00;98202.97;5047643;28;20538;-75
2023/01/17 04:12:00;;;;;;;12.05;4.70;;;;;;;2.40;100.00;98211.91;5045943;28;20113;-76
2023/01/17 04:14:27;;;;;;;8.95;3.38;;;;;;;2.43;100.00;98204.91;5047577;28;20045;-76
2023/01/17 04:16:54;;;;;;;5.10;2.42;;;;;;;2.41;100.00;98220.88;5047939;28;20521;-76
2023/01/17 04:19:21;;;;;;;3.00;1.58;;;;;;;2.49;100.00;98217.69;5048555;28;20052;-73
2023/01/17 04:21:47;;;;;;;7.72;3.35;;;;;;;2.49;100.00;98214.19;5045757;28;20078;-76
2023/01/17 04:24:14;;;;;;;9.40;4.18;;;;;;;2.53;100.00;98223.88;5043065;28;20427;-72
2023/01/17 04:26:43;;;;;;;4.50;2.10;;;;;;;2.49;100.00;98222.34;5048374;28;20053;-73
2023/01/17 04:29:09;;;;;;;4.93;1.95;;;;;;;2.54;100.00;98225.44;5047587;28;20049;-72
2023/01/17 04:31:36;;;;;;;10.88;4.90;;;;;;;2.69;100.00;98226.06;5045532;28;20499;-74
2023/01/17 04:34:02;;;;;;;7.63;3.05;;;;;;;2.65;100.00;98217.16;5046682;28;20465;-75
2023/01/17 04:36:29;;;;;;;8.02;3.25;;;;;;;2.69;100.00;98221.41;5047491;28;20049;-74
2023/01/17 04:38:55;;;;;;;9.27;3.00;;;;;;;2.77;100.00;98226.78;5046874;28;20048;-76
2023/01/17 04:41:22;;;;;;;13.80;5.50;;;;;;;2.78;100.00;98234.59;5046494;28;20045;-76
2023/01/17 04:43:48;;;;;;;14.40;5.97;;;;;;;2.84;100.00;98230.22;5044596;28;20060;-72
2023/01/17 04:46:15;;;;;;;18.40;7.13;;;;;;;2.90;100.00;98234.06;5048161;28;20056;-74
2023/01/17 04:48:41;;;;;;;20.33;7.40;;;;;;;2.92;100.00;98234.44;5043660;28;20412;-76
2023/01/17 04:51:08;;;;;;;14.68;6.60;;;;;;;2.84;100.00;98241.16;5029632;28;20049;-74
2023/01/17 04:53:34;;;;;;;20.35;7.32;;;;;;;2.89;100.00;98237.97;5047281;28;20040;-75
2023/01/17 04:56:01;;;;;;;6.47;2.47;;;;;;;2.89;100.00;98243.44;5029358;28;20049;-76
2023/01/17 04:58:29;;;;;;;22.55;9.80;;;;;;;2.93;100.00;98241.44;5046242;28;20055;-75
2023/01/17 05:01:00;;;;;;;14.88;5.80;;;;;;;2.87;100.00;98245.78;5047625;28;20558;-75
2023/01/17 05:03:28;;;;;;;16.75;6.03;;;;;;;2.92;100.00;98250.81;5047041;28;20053;-75
2023/01/17 05:05:54;;;;;;;22.70;8.02;;;;;;;2.90;100.00;98244.97;5046862;28;20119;-73
2023/01/17 05:08:21;;;;;;;37.08;13.18;;;;;;;3.00;100.00;98246.81;5046421;28;20692;-73
2023/01/17 05:10:47;;;;;;;19.00;8.18;;;;;;;3.01;100.00;98261.28;5047515;28;20045;-73
2023/01/17 05:13:14;;;;;;;29.25;10.50;;;;;;;3.07;100.00;98256.91;5046584;28;20045;-72
2023/01/17 05:15:41;;;;;;;18.27;6.05;;;;;;;3.10;100.00;98262.34;5046788;28;20055;-74
2023/01/17 05:18:12;;;;;;;13.27;4.38;;;;;;;3.01;100.00;98262.06;5047343;28;20111;-73
2023/01/17 05:20:38;;;;;;;15.07;5.70;;;;;;;3.08;100.00;98267.44;5046403;28;20047;-73
2023/01/17 05:23:05;;;;;;;23.25;10.18;;;;;;;3.14;100.00;98265.03;5045070;28;20353;-74
2023/01/17 05:25:31;;;;;;;16.85;7.82;;;;;;;3.10;100.00;98272.50;5047434;28;20068;-74
2023/01/17 05:27:59;;;;;;;3.40;2.00;;;;;;;3.01;100.00;98264.00;5046834;28;20045;-74
2023/01/17 05:30:27;;;;;;;15.00;6.78;;;;;;;3.06;100.00;98261.59;5046609;28;20688;-74
2023/01/17 05:32:55;;;;;;;25.55;10.55;;;;;;;3.03;100.00;98256.94;5044851;28;20048;-78
2023/01/17 05:35:24;;;;;;;9.70;5.07;;;;;;;2.97;100.00;98268.72;5046252;28;20049;-74
2023/01/17 05:37:51;;;;;;;14.55;5.53;;;;;;;2.94;100.00;98281.25;5047482;28;20056;-75
2023/01/17 05:40:20;;;;;;;15.75;6.60;;;;;;;3.00;100.00;98271.41;5046596;28;20045;-73
2023/01/17 05:42:51;;;;;;;16.83;6.63;;;;;;;2.99;100.00;98269.06;5046687;28;20053;-72
2023/01/17 05:45:20;;;;;;;8.10;3.72;;;;;;;2.97;100.00;98280.41;5045057;28;20044;-75
2023/01/17 05:47:49;;;;;;;5.28;2.58;;;;;;;2.96;100.00;98278.88;5050155;28;20075;-72
2023/01/17 05:50:22;;;;;;;14.40;6.68;;;;;;;2.96;100.00;98270.66;5033343;28;20708;-73
2023/01/17 05:52:58;;;;;;;12.77;5.25;;;;;;;2.96;100.00;98287.06;5049807;28;20053;-75
2023/01/17 05:55:26;;;;;;;10.40;4.30;;;;;;;2.77;100.00;98273.22;5050604;28;20064;-71
2023/01/17 05:57:53;;;;;;;7.15;3.00;;;;;;;2.80;100.00;98273.16;5048306;28;20052;-73
2023/01/17 06:00:20;;;;;;;11.35;3.78;;;;;;;2.59;100.00;98281.53;5050800;28;20053;-73
2023/01/17 06:02:47;;;;;;;14.13;4.57;;;;;;;2.68;100.00;98288.13;5050534;28;20049;-74
2023/01/17 06:05:15;;;;;;;16.23;5.30;;;;;;;2.71;100.00;98294.72;5049708;28;20045;-76
2023/01/17 06:07:45;;;;;;;14.27;4.35;;;;;;;2.65;100.00;98304.50;5050981;28;20048;-75
2023/01/17 06:10:16;;;;;;;14.75;5.00;;;;;;;2.66;100.00;98297.84;5050590;28;20103;-73
2023/01/17 06:12:44;;;;;;;17.25;4.72;;;;;;;2.60;100.00;98302.22;5031619;28;20052;-71
2023/01/17 06:15:13;;;;;;;18.00;5.53;;;;;;;2.61;100.00;98314.69;5050847;28;20132;-76
2023/01/17 06:17:39;;;;;;;15.60;5.10;;;;;;;2.65;100.00;98323.63;5047877;28;20638;-76
2023/01/17 06:20:08;;;;;;;20.92;4.90;;;;;;;2.58;100.00;98323.66;5048887;28;20503;-74
2023/01/17 06:22:34;;;;;;;13.73;5.40;;;;;;;2.64;100.00;98333.00;5049906;28;20051;-74
2023/01/17 06:25:01;;;;;;;17.70;5.97;;;;;;;2.60;100.00;98334.97;5045438;28;20128;-75
2023/01/17 06:27:28;;;;;;;17.98;5.55;;;;;;;2.62;100.00;98338.84;5050488;28;20503;-75
2023/01/17 06:29:54;;;;;;;12.45;3.88;;;;;;;2.59;100.00;98330.66;5049690;28;20071;-74
2023/01/17 06:32:21;;;;;;;8.68;3.58;;;;;;;2.59;100.00;98336.13;5047972;28;20417;-76
2023/01/17 06:34:47;;;;;;;23.00;8.20;;;;;;;2.66;100.00;98344.28;5048074;28;20507;-75
2023/01/17 06:37:13;;;;;;;22.70;7.20;;;;;;;2.66;100.00;98342.31;5049103;28;20044;-75
2023/01/17 06:39:40;;;;;;;18.67;6.10;;;;;;;2.63;100.00;98353.25;5048601;28;20063;-76
2023/01/17 06:42:07;;;;;;;17.98;8.00;;;;;;;2.63;100.00;98345.06;5032489;28;20047;-76
2023/01/17 06:44:33;;;;;;;22.27;8.30;;;;;;;2.64;100.00;98341.19;5048092;28;20881;-74
2023/01/17 06:47:00;;;;;;;26.08;11.05;;;;;;;2.74;100.00;98353.97;5046430;28;20068;-75
2023/01/17 06:49:26;;;;;;;30.08;13.07;;;;;;;2.84;100.00;98355.84;5049992;28;20048;-74
2023/01/17 06:51:52;;;;;;;30.42;11.63;;;;;;;2.67;100.00;98357.53;5047127;28;20060;-75
2023/01/17 06:54:19;;;;;;;32.30;13.15;;;;;;;2.84;100.00;98363.25;5046214;28;20041;-75
2023/01/17 06:56:45;;;;;;;18.38;8.65;;;;;;;2.85;100.00;98360.13;5048956;28;20431;-76
2023/01/17 06:59:12;;;;;;;34.58;14.82;;;;;;;2.88;100.00;98364.78;5046691;28;20056;-73
2023/01/17 07:01:39;;;;;;;28.27;8.50;;;;;;;2.80;100.00;98368.72;5049736;28;20045;-76
2023/01/17 07:04:05;;;;;;;26.55;9.73;;;;;;;2.82;100.00;98366.38;5048693;28;20045;-74
2023/01/17 07:06:35;;;;;;;30.88;12.43;;;;;;;2.87;100.00;98376.88;5049703;28;20053;-75
2023/01/17 07:09:03;;;;;;;30.52;13.65;;;;;;;2.87;100.00;98384.31;5044823;28;20100;-75
2023/01/17 07:11:30;;;;;;;23.83;9.95;;;;;;;2.85;100.00;98381.97;5049547;28;20504;-75
2023/01/17 07:13:56;;;;;;;38.13;14.50;;;;;;;2.91;100.00;98385.84;5048336;28;20047;-76
2023/01/17 07:16:23;;;;;;;22.30;8.73;;;;;;;2.88;100.00;98391.31;5048476;28;20418;-74
2023/01/17 07:18:50;;;;;;;27.23;11.25;;;;;;;2.89;100.00;98393.63;5048266;28;20052;-74
2023/01/17 07:21:17;;;;;;;35.90;16.20;;;;;;;2.98;100.00;98390.44;5040506;28;20056;-74
2023/01/17 07:23:43;;;;;;;35.08;13.55;;;;;;;2.98;100.00;98391.22;5048011;28;20415;-75
2023/01/17 07:26:10;;;;;;;33.67;13.20;;;;;;;2.93;100.00;98388.91;5049048;28;20494;-74
2023/01/17 07:28:36;;;;;;;23.13;10.38;;;;;;;2.92;100.00;98397.50;5049799;28;20496;-76
2023/01/17 07:31:05;;;;;;;35.40;15.55;;;;;;;2.91;100.00;98385.84;5048571;28;20059;-76
2023/01/17 07:33:32;;;;;;;36.42;15.50;;;;;;;2.91;100.00;98385.84;5047742;28;20112;-74
2023/01/17 07:36:05;;;;;;;32.22;14.52;;;;;;;2.92;100.00;98387.38;5040207;28;20422;-75
2023/01/17 07:38:31;;;;;;;35.13;15.13;;;;;;;2.94;100.00;98393.22;5039928;28;20575;-75
2023/01/17 07:40:58;;;;;;;3.45;2.15;;;;;;;2.87;100.00;98384.31;5049146;28;20059;-73
2023/01/17 07:43:25;;;;;;;30.83;12.75;;;;;;;2.87;100.00;98379.59;5047786;28;20053;-74
2023/01/17 07:45:52;;;;;;;9.07;4.65;;;;;;;2.81;100.00;98383.97;5049283;28;20051;-74
2023/01/17 07:48:22;;;;;;;31.92;14.30;;;;;;;2.93;100.00;98380.72;5049229;28;20037;-74
2023/01/17 07:50:56;;;;;;;17.48;7.55;;;;;;;2.85;100.00;98392.88;5047641;28;20075;-74
2023/01/17 07:53:24;;;;;;;18.73;9.23;;;;;;;2.89;100.00;98393.63;5047223;28;20055;-74
2023/01/17 07:55:51;;;;;;;19.33;8.25;;;;;;;2.95;100.00;98393.97;5048259;28;20064;-75
2023/01/17 07:58:18;;;;;;;26.10;11.05;;;;;;;2.82;100.00;98376.53;5047373;28;20491;-75
2023/01/17 08:00:45;;;;;;;45.95;20.30;;;;;;;2.91;100.00;98374.91;5048392;28;20522;-73
2023/01/17 08:03:14;;;;;;;46.53;19.92;;;;;;;2.89;100.00;98377.25;5044645;28;20064;-76
2023/01/17 08:05:43;;;;;;;32.65;13.57;;;;;;;2.93;100.00;98383.47;5048397;28;20056;-78
2023/01/17 08:08:09;;;;;;;36.72;14.52;;;;;;;2.90;100.00;98378.78;5046807;28;20658;-77
2023/01/17 08:10:36;;;;;;;12.27;5.15;;;;;;;2.91;100.00;98379.59;5047687;28;20056;-74
2023/01/17 08:13:02;;;;;;;29.58;13.75;;;;;;;2.97;100.00;98375.25;5047579;28;20041;-74
2023/01/17 08:15:29;;;;;;;42.50;21.42;;;;;;;3.01;100.00;98373.25;5047481;28;20053;-75
2023/01/17 08:17:56;;;;;;;46.65;18.30;;;;;;;3.03;100.00;98381.84;5047175;28;20053;-75
2023/01/17 08:20:24;;;;;;;47.35;21.98;;;;;;;3.06;100.00;98389.19;5047072;28;20135;-73
2023/01/17 08:22:55;;;;;;;28.00;11.90;;;;;;;2.95;100.00;98396.72;5022037;28;20053;-74
2023/01/17 08:25:25;;;;;;;15.48;7.53;;;;;;;2.99;100.00;98394.72;5045482;28;20041;-73
2023/01/17 08:27:56;;;;;;;30.67;11.35;;;;;;;2.99;100.00;98392.78;5046420;28;20047;-69
2023/01/17 08:30:23;;;;;;;37.80;14.95;;;;;;;3.13;100.00;98389.94;5047614;28;20136;-74
2023/01/17 08:32:50;;;;;;;43.83;21.38;;;;;;;3.15;100.00;98393.03;5045765;28;20048;-76
2023/01/17 08:35:18;;;;;;;47.58;22.60;;;;;;;3.15;100.00;98390.31;5047158;28;20049;-75
2023/01/17 08:37:46;;;;;;;41.53;17.65;;;;;;;3.14;100.00;98386.00;5045790;28;20060;-75
2023/01/17 08:40:15;;;;;;;27.52;11.68;;;;;;;3.16;100.00;98386.38;5044350;28;20049;-77
2023/01/17 08:42:43;;;;;;;55.50;21.73;;;;;;;3.17;100.00;98390.66;5039085;28;20057;-73
2023/01/17 08:45:10;;;;;;;51.47;22.90;;;;;;;3.29;100.00;98392.13;5047225;28;20056;-73
2023/01/17 08:47:37;;;;;;;32.38;12.93;;;;;;;3.19;100.00;98390.25;5046908;28;20056;-77
2023/01/17 08:50:05;;;;;;;53.30;22.98;;;;;;;3.36;100.00;98397.53;5047485;28;20049;-74
2023/01/17 08:52:32;;;;;;;49.78;20.90;;;;;;;3.39;100.00;98405.69;5046885;28;20041;-75
2023/01/17 08:54:59;;;;;;;48.20;24.27;;;;;;;3.47;100.00;98400.94;5043167;28;20049;-75
2023/01/17 08:57:25;;;;;;;33.28;12.63;;;;;;;3.42;100.00;98409.56;5047193;28;20082;-74
2023/01/17 08:59:52;;;;;;;51.40;22.60;;;;;;;3.47;100.00;98409.16;5045848;28;20049;-74
2023/01/17 09:02:19;;;;;;;53.70;23.00;;;;;;;3.43;100.00;98420.09;5045938;28;20140;-74
2023/01/17 09:04:47;;;;;;;40.20;16.40;;;;;;;3.39;100.00;98415.84;5039607;28;20056;-74
2023/01/17 09:07:15;;;;;;;24.98;10.20;;;;;;;3.31;100.00;98415.13;5046820;28;20056;-75
2023/01/17 09:09:42;;;;;;;51.25;19.05;;;;;;;3.35;100.00;98417.84;5046715;28;20146;-75
2023/01/17 09:12:08;;;;;;;42.63;17.60;;;;;;;3.30;100.00;98416.31;5044554;28;20499;-75
2023/01/17 09:14:36;;;;;;;15.85;7.13;;;;;;;3.29;100.00;98422.19;5046623;28;20061;-77
2023/01/17 09:17:05;;;;;;;32.55;14.60;;;;;;;3.34;100.00;98429.97;5047075;28;20556;-73
2023/01/17 09:19:32;;;;;;;42.30;20.02;;;;;;;3.35;100.00;98426.03;5047148;28;20045;-74
2023/01/17 09:21:58;;;;;;;28.35;12.15;;;;;;;3.37;100.00;98429.91;5046907;28;20049;-74
2023/01/17 09:24:25;;;;;;;20.83;10.15;;;;;;;3.44;100.00;98431.81;5046897;28;21489;-74
2023/01/17 09:26:51;;;;;;;26.48;12.00;;;;;;;3.38;100.00;98430.72;5045387;28;20052;-73
2023/01/17 09:29:18;;;;;;;43.33;18.10;;;;;;;3.54;100.00;98431.72;5046023;28;20053;-76
2023/01/17 09:31:46;;;;;;;12.98;6.10;;;;;;;3.36;100.00;98422.91;5046455;28;20507;-73
2023/01/17 09:34:13;;;;;;;24.88;9.48;;;;;;;3.43;100.00;98424.78;5045792;28;20463;-76
2023/01/17 09:36:40;;;;;;;30.23;12.95;;;;;;;3.41;100.00;98427.16;5047607;28;20052;-72
2023/01/17 09:39:09;;;;;;;35.65;15.43;;;;;;;3.50;100.00;98428.25;5045894;28;20040;-73
2023/01/17 09:42:08;;;;;;;25.83;11.60;;;;;;;3.45;100.00;98431.44;5042807;28;20060;-77
2023/01/17 09:44:52;;;;;;;37.42;15.85;;;;;;;3.52;100.00;98427.84;4989358;28;20427;-73
2023/01/17 09:47:25;;;;;;;43.13;19.05;;;;;;;3.61;100.00;98428.91;5044962;28;20041;-74
2023/01/17 09:49:55;;;;;;;49.13;20.20;;;;;;;3.66;100.00;98428.47;5046533;28;20049;-73
2023/01/17 09:52:23;;;;;;;44.30;18.83;;;;;;;3.72;100.00;98426.88;5046111;28;20056;-74
2023/01/17 09:54:50;;;;;;;44.30;19.13;;;;;;;3.83;100.00;98433.00;5046222;28;20055;-74
2023/01/17 09:57:41;;;;;;;45.00;10.43;;;;;;;3.64;100.00;98435.53;5041677;28;20055;-75
2023/01/17 10:00:33;;;;;;;28.15;11.32;;;;;;;3.66;100.00;98442.16;5043329;28;20053;-73
2023/01/17 10:03:09;;;;;;;48.42;19.63;;;;;;;3.75;100.00;98439.69;5038513;28;20503;-73
2023/01/17 10:05:57;;;;;;;28.45;11.93;;;;;;;3.75;100.00;98438.94;5042003;28;20512;-77
2023/01/17 10:08:40;;;;;;;53.95;23.00;;;;;;;3.82;100.00;98441.59;5043497;28;20504;-73
2023/01/17 10:11:09;;;;;;;48.78;23.02;;;;;;;3.93;100.00;98451.25;5046847;28;20045;-75
2023/01/17 10:13:50;;;;;;;31.10;13.77;;;;;;;3.68;100.00;98453.44;5034665;28;20049;-73
2023/01/17 10:16:40;;;;;;;35.88;16.80;;;;;;;3.72;100.00;98448.75;5042776;28;20047;-72
2023/01/17 10:19:26;;;;;;;39.10;18.58;;;;;;;3.65;100.00;98446.03;5041841;28;20702;-76
2023/01/17 10:22:29;;;;;;;41.75;16.55;;;;;;;3.68;100.00;98450.72;5026064;28;20840;-75
2023/01/17 10:25:31;;;;;;;30.88;10.93;;;;;;;3.64;100.00;98449.22;4995609;28;20179;-75
2023/01/17 10:28:02;;;;;;;44.90;18.98;;;;;;;3.86;100.00;98445.06;5034791;28;20049;-73
2023/01/17 10:30:33;;;;;;;46.22;20.10;;;;;;;4.04;100.00;98460.13;5039566;28;20055;-74
2023/01/17 10:33:11;;;;;;;41.92;17.13;;;;;;;4.05;100.00;98439.75;5039072;28;20045;-74
2023/01/17 10:35:55;;;;;;;48.67;22.67;;;;;;;4.30;100.00;98447.69;5044829;28;20052;-74
2023/01/17 10:38:32;;;;;;;43.78;18.63;;;;;;;4.50;100.00;98452.13;5048672;28;20057;-73
2023/01/17 10:40:59;;;;;;;37.67;13.75;;;;;;;4.63;100.00;98446.88;5050517;28;20202;-73
2023/01/17 10:43:34;;;;;;;51.42;22.80;;;;;;;4.84;100.00;98457.53;5044229;28;20049;-74
2023/01/17 10:46:01;;;;;;;26.27;11.48;;;;;;;4.57;100.00;98463.00;5045595;28;20060;-76
2023/01/17 10:48:45;;;;;;;44.92;20.42;;;;;;;4.64;100.00;98462.91;5042371;28;20048;-74
2023/01/17 10:51:41;;;;;;;26.38;11.70;;;;;;;4.28;100.00;98456.31;5032470;28;20067;-73
2023/01/17 10:54:26;;;;;;;30.25;11.95;;;;;;;4.42;100.00;98455.38;5041692;28;20053;-75
2023/01/17 10:56:53;;;;;;;47.50;19.10;;;;;;;4.40;100.00;98458.53;5039809;28;20052;-74
2023/01/17 10:59:39;;;;;;;21.38;9.65;;;;;;;4.31;100.00;98444.53;5040534;28;20060;-74
2023/01/17 11:02:19;;;;;;;16.77;8.15;;;;;;;4.55;100.00;98448.13;5044275;28;20044;-76
2023/01/17 11:04:50;;;;;;;24.55;10.18;;;;;;;5.21;100.00;98432.69;5043809;28;20194;-73
2023/01/17 11:07:25;;;;;;;44.17;16.80;;;;;;;7.56;100.00;98431.34;5043213;28;20480;-72
2023/01/17 11:09:54;;;;;;;30.33;12.63;;;;;;;9.39;100.00;98435.06;5048849;28;20045;-76
2023/01/17 11:12:29;;;;;;;33.38;11.27;;;;;;;10.57;100.00;98432.13;5039623;28;20048;-77
2023/01/17 11:15:09;;;;;;;39.08;17.58;;;;;;;11.75;100.00;98418.75;5035498;28;20139;-76
2023/01/17 11:17:40;;;;;;;15.50;6.25;;;;;;;11.72;88.20;98430.75;5039785;28;20063;-74
2023/01/17 11:20:34;;;;;;;18.58;8.07;;;;;;;10.96;90.43;98421.56;5049635;28;20045;-73
2023/01/17 11:23:03;;;;;;;36.25;15.85;;;;;;;11.97;100.00;98424.94;5028745;28;20044;-74
2023/01/17 11:25:34;;;;;;;30.77;13.52;;;;;;;11.59;86.39;98425.31;5047378;28;20041;-75
2023/01/17 11:28:15;;;;;;;31.38;13.93;;;;;;;11.29;95.87;98426.16;5042723;28;20055;-74
2023/01/17 11:30:56;;;;;;;38.58;14.27;;;;;;;13.29;78.73;98422.84;5019362;28;20060;-79
2023/01/17 11:33:44;;;;;;;32.90;13.73;;;;;;;14.22;69.36;98421.34;5021117;28;20041;-77
2023/01/17 11:36:21;;;;;;;31.50;14.20;;;;;;;14.97;71.44;98421.66;5022349;28;20053;-74
2023/01/17 11:38:58;;;;;;;13.52;4.47;;;;;;;12.70;63.24;98421.63;5021827;28;20053;-79
2023/01/17 11:41:26;;;;;;;31.08;15.20;;;;;;;12.03;85.31;98418.34;5024320;28;20497;-80
2023/01/17 11:43:58;;;;;;;21.35;8.38;;;;;;;12.77;68.80;98428.88;5022081;28;20132;-78
2023/01/17 11:46:29;;;;;;;27.75;13.02;;;;;;;12.71;67.04;98423.19;5025449;28;20961;-80
2023/01/17 11:49:01;;;;;;;20.70;8.73;;;;;;;10.97;73.95;98412.06;5015078;28;20176;-81
2023/01/17 11:51:40;;;;;;;25.33;12.57;;;;;;;9.98;81.27;98412.16;5021881;28;20056;-77
2023/01/17 11:54:15;;;;;;;17.80;7.03;;;;;;;9.01;90.29;98408.75;5023080;28;20056;-75
2023/01/17 11:56:45;;;;;;;22.70;7.30;;;;;;;8.12;100.00;98417.25;5015993;28;20041;-76
2023/01/17 11:59:25;;;;;;;17.83;7.22;;;;;;;8.58;98.46;98414.00;5023813;28;20091;-75
2023/01/17 12:02:00;;;;;;;26.95;11.63;;;;;;;8.16;100.00;98406.94;5014701;28;20042;-77
2023/01/17 12:04:27;;;;;;;32.42;11.55;;;;;;;7.74;100.00;98409.63;5014126;28;20048;-77
2023/01/17 12:07:14;;;;;;;22.23;8.90;;;;;;;7.74;100.00;98419.88;5019499;28;20919;-79
2023/01/17 12:09:44;;;;;;;19.17;5.68;;;;;;;7.12;100.00;98410.03;5020342;28;20731;-78
2023/01/17 12:15:38;;;;;;;9.40;3.50;;;;;;;7.83;100.00;98403.50;4991218;28;20049;-78
2023/01/17 12:18:29;;;;;;;13.60;6.05;;;;;;;8.03;100.00;98398.63;5023066;28;20045;-78
2023/01/17 12:21:14;;;;;;;28.23;12.60;;;;;;;8.39;100.00;98399.19;5018042;28;20049;-77
2023/01/17 12:24:11;;;;;;;30.25;10.95;;;;;;;8.19;100.00;98387.56;5022891;28;20919;-78
2023/01/17 12:27:06;;;;;;;23.00;5.72;;;;;;;7.66;100.00;98391.75;5017781;28;20045;-78
2023/01/17 12:29:42;;;;;;;10.20;5.00;;;;;;;7.28;100.00;98390.00;5001790;28;20056;-77
2023/01/17 12:32:08;;;;;;;14.25;6.72;;;;;;;6.88;100.00;98386.66;5023394;28;20052;-75
2023/01/17 12:34:52;;;;;;;21.42;5.80;;;;;;;6.54;100.00;98389.00;5021054;28;20562;-77
2023/01/17 12:37:18;;;;;;;7.35;2.47;;;;;;;7.53;100.00;98379.16;5016685;28;20595;-78
2023/01/17 12:39:52;;;;;;;29.75;11.15;;;;;;;8.56;100.00;98381.38;5018443;28;20068;-78
2023/01/17 12:42:24;;;;;;;29.65;11.32;;;;;;;8.73;100.00;98382.81;5012375;28;20049;-77
2023/01/17 12:45:08;;;;;;;11.98;4.38;;;;;;;8.91;96.75;98385.03;5008485;28;20191;-77
2023/01/17 12:47:42;;;;;;;28.67;11.38;;;;;;;9.36;97.38;98378.03;5018253;28;20061;-77
2023/01/17 12:50:25;;;;;;;29.35;12.13;;;;;;;10.17;96.17;98389.78;5020398;28;20045;-75
2023/01/17 12:52:57;;;;;;;28.13;10.20;;;;;;;11.16;92.67;98377.69;5026714;28;20053;-76
2023/01/17 12:55:50;;;;;;;29.02;11.38;;;;;;;11.61;83.15;98388.88;5017798;28;20933;-79
2023/01/17 12:58:23;;;;;;;27.40;9.82;;;;;;;11.39;77.68;98379.91;5015374;28;20052;-79
2023/01/17 13:01:15;;;;;;;26.95;9.73;;;;;;;11.05;85.28;98388.41;5026003;28;20515;-80
2023/01/17 13:03:57;;;;;;;24.60;10.40;;;;;;;11.59;88.00;98385.78;5011743;28;20055;-79
2023/01/17 13:06:43;;;;;;;27.05;9.70;;;;;;;11.27;74.54;98384.31;5007917;28;20610;-79
2023/01/17 13:09:15;;;;;;;21.42;8.52;;;;;;;10.24;79.11;98386.00;5027818;28;20056;-76
2023/01/17 13:11:58;;;;;;;26.92;8.75;;;;;;;9.92;85.69;98392.63;5021646;28;20126;-77